sensor_id;sensor_type;location;lat;lon;timestamp;pressure;altitude;pressure_sealevel;temperature;humidity
14790;BME280;7486;51.010;10.366;2023-02-18T00:01:29;98683.53;;;6.64;87.87
14790;BME280;7486;51.010;10.366;2023-02-18T00:03:58;98661.88;;;6.46;87.75
14790;BME280;7486;51.010;10.366;2023-02-18T00:06:30;98680.09;;;6.64;88.08
14790;BME280;7486;51.010;10.366;2023-02-18T00:08:57;98645.78;;;6.41;88.74
14790;BME280;7486;51.010;10.366;2023-02-18T00:11:24;98689.97;;;6.62;88.91
14790;BME280;7486;51.010;10.366;2023-02-18T00:13:53;98691.47;;;6.48;90.20
14790;BME280;7486;51.010;10.366;2023-02-18T00:16:20;98680.66;;;6.27;91.65
14790;BME280;7486;51.010;10.366;2023-02-18T00:18:48;98698.75;;;6.38;91.85
14790;BME280;7486;51.010;10.366;2023-02-18T00:21:15;98685.13;;;6.27;92.44
14790;BME280;7486;51.010;10.366;2023-02-18T00:23:42;98696.25;;;6.45;91.79
14790;BME280;7486;51.010;10.366;2023-02-18T00:26:12;98668.81;;;6.39;91.22
14790;BME280;7486;51.010;10.366;2023-02-18T00:28:40;98700.25;;;6.25;92.49
14790;BME280;7486;51.010;10.366;2023-02-18T00:31:12;98692.50;;;6.31;93.14
14790;BME280;7486;51.010;10.366;2023-02-18T00:33:40;98701.84;;;6.34;93.54
14790;BME280;7486;51.010;10.366;2023-02-18T00:36:12;98690.16;;;6.44;92.69
14790;BME280;7486;51.010;10.366;2023-02-18T00:38:46;98683.47;;;6.17;93.49
14790;BME280;7486;51.010;10.366;2023-02-18T00:41:13;98697.56;;;6.41;93.34
14790;BME280;7486;51.010;10.366;2023-02-18T00:43:40;98700.81;;;6.59;92.27
14790;BME280;7486;51.010;10.366;2023-02-18T00:46:07;98699.22;;;6.42;92.78
14790;BME280;7486;51.010;10.366;2023-02-18T00:48:34;98639.63;;;6.02;93.46
14790;BME280;7486;51.010;10.366;2023-02-18T00:51:02;98707.31;;;6.40;93.50
14790;BME280;7486;51.010;10.366;2023-02-18T00:53:30;98708.91;;;6.49;93.26
14790;BME280;7486;51.010;10.366;2023-02-18T00:55:57;98662.91;;;6.29;92.29
14790;BME280;7486;51.010;10.366;2023-02-18T00:58:24;98688.34;;;6.45;92.48
14790;BME280;7486;51.010;10.366;2023-02-18T01:00:51;98715.19;;;6.32;93.33
14790;BME280;7486;51.010;10.366;2023-02-18T01:03:18;98700.38;;;6.39;94.09
14790;BME280;7486;51.010;10.366;2023-02-18T01:05:45;98708.44;;;6.38;93.64
14790;BME280;7486;51.010;10.366;2023-02-18T01:08:11;98709.75;;;6.42;93.86
14790;BME280;7486;51.010;10.366;2023-02-18T01:10:43;98713.22;;;6.42;93.32
14790;BME280;7486;51.010;10.366;2023-02-18T01:13:11;98681.38;;;6.05;95.05
14790;BME280;7486;51.010;10.366;2023-02-18T01:15:40;98710.09;;;6.39;94.23
14790;BME280;7486;51.010;10.366;2023-02-18T01:18:12;98702.56;;;6.19;94.55
14790;BME280;7486;51.010;10.366;2023-02-18T01:20:40;98690.06;;;6.13;96.64
14790;BME280;7486;51.010;10.366;2023-02-18T01:23:07;98684.94;;;6.36;95.70
14790;BME280;7486;51.010;10.366;2023-02-18T01:25:35;98617.44;;;6.04;93.81
14790;BME280;7486;51.010;10.366;2023-02-18T01:28:03;98702.34;;;6.37;94.28
14790;BME280;7486;51.010;10.366;2023-02-18T01:30:30;98710.91;;;6.39;94.16
14790;BME280;7486;51.010;10.366;2023-02-18T01:32:57;98692.31;;;6.41;94.05
14790;BME280;7486;51.010;10.366;2023-02-18T01:35:24;98699.59;;;6.23;95.33
14790;BME280;7486;51.010;10.366;2023-02-18T01:37:53;98692.53;;;6.23;96.22
14790;BME280;7486;51.010;10.366;2023-02-18T01:40:22;98698.44;;;6.33;95.31
14790;BME280;7486;51.010;10.366;2023-02-18T01:42:50;98688.22;;;6.38;94.54
14790;BME280;7486;51.010;10.366;2023-02-18T01:50:32;98701.25;;;6.07;96.77
14790;BME280;7486;51.010;10.366;2023-02-18T01:53:04;98701.41;;;6.14;96.92
14790;BME280;7486;51.010;10.366;2023-02-18T01:55:33;98696.94;;;6.31;96.35
14790;BME280;7486;51.010;10.366;2023-02-18T01:58:01;98690.84;;;6.46;95.17
14790;BME280;7486;51.010;10.366;2023-02-18T02:00:28;98684.56;;;6.47;94.13
14790;BME280;7486;51.010;10.366;2023-02-18T02:02:55;98699.03;;;6.51;93.84
14790;BME280;7486;51.010;10.366;2023-02-18T02:05:22;98687.53;;;6.44;93.65
14790;BME280;7486;51.010;10.366;2023-02-18T02:07:51;98689.47;;;6.75;92.83
14790;BME280;7486;51.010;10.366;2023-02-18T02:10:20;98680.25;;;6.62;92.31
14790;BME280;7486;51.010;10.366;2023-02-18T02:29:54;98686.75;;;6.28;92.62
14790;BME280;7486;51.010;10.366;2023-02-18T02:35:20;98651.94;;;5.93;94.14
14790;BME280;7486;51.010;10.366;2023-02-18T02:40:31;98671.50;;;6.07;94.82
14790;BME280;7486;51.010;10.366;2023-02-18T02:43:24;98669.34;;;6.10;94.43
14790;BME280;7486;51.010;10.366;2023-02-18T02:46:02;98667.34;;;6.20;93.11
14790;BME280;7486;51.010;10.366;2023-02-18T02:48:43;98664.41;;;6.24;92.63
14790;BME280;7486;51.010;10.366;2023-02-18T02:51:15;98656.19;;;6.18;92.35
14790;BME280;7486;51.010;10.366;2023-02-18T02:53:43;98648.16;;;6.12;92.89
14790;BME280;7486;51.010;10.366;2023-02-18T02:56:18;98645.38;;;5.97;92.66
14790;BME280;7486;51.010;10.366;2023-02-18T02:58:59;98659.34;;;6.06;92.54
14790;BME280;7486;51.010;10.366;2023-02-18T03:10:04;98640.59;;;6.09;93.07
14790;BME280;7486;51.010;10.366;2023-02-18T03:20:54;98632.34;;;6.28;90.43
14790;BME280;7486;51.010;10.366;2023-02-18T03:23:26;98643.84;;;6.27;90.51
14790;BME280;7486;51.010;10.366;2023-02-18T03:25:56;98639.94;;;6.07;91.50
14790;BME280;7486;51.010;10.366;2023-02-18T03:28:25;98639.59;;;6.10;91.76
14790;BME280;7486;51.010;10.366;2023-02-18T03:30:58;98640.91;;;6.22;91.04
14790;BME280;7486;51.010;10.366;2023-02-18T03:33:30;98636.75;;;6.36;90.29
14790;BME280;7486;51.010;10.366;2023-02-18T03:35:58;98645.69;;;6.18;90.04
14790;BME280;7486;51.010;10.366;2023-02-18T03:38:39;98641.88;;;6.21;90.03
14790;BME280;7486;51.010;10.366;2023-02-18T03:41:10;98643.22;;;6.09;90.64
14790;BME280;7486;51.010;10.366;2023-02-18T03:43:39;98635.50;;;6.07;90.98
14790;BME280;7486;51.010;10.366;2023-02-18T03:46:06;98613.81;;;6.05;90.13
14790;BME280;7486;51.010;10.366;2023-02-18T03:48:33;98648.13;;;6.20;90.30
14790;BME280;7486;51.010;10.366;2023-02-18T03:51:00;98649.75;;;6.29;90.34
14790;BME280;7486;51.010;10.366;2023-02-18T03:53:27;98639.75;;;6.25;90.10
14790;BME280;7486;51.010;10.366;2023-02-18T03:55:53;98641.75;;;6.14;91.07
14790;BME280;7486;51.010;10.366;2023-02-18T03:58:20;98630.22;;;6.15;91.04
14790;BME280;7486;51.010;10.366;2023-02-18T04:00:47;98631.00;;;6.32;89.83
14790;BME280;7486;51.010;10.366;2023-02-18T04:03:14;98627.09;;;6.20;90.45
14790;BME280;7486;51.010;10.366;2023-02-18T04:05:40;98606.38;;;6.17;90.47
14790;BME280;7486;51.010;10.366;2023-02-18T04:08:07;98618.00;;;6.31;89.67
14790;BME280;7486;51.010;10.366;2023-02-18T04:10:34;98612.25;;;6.27;89.88
14790;BME280;7486;51.010;10.366;2023-02-18T04:13:00;98608.34;;;6.23;90.10
14790;BME280;7486;51.010;10.366;2023-02-18T04:15:27;98593.06;;;6.18;90.51
14790;BME280;7486;51.010;10.366;2023-02-18T04:17:54;98597.53;;;6.10;90.51
14790;BME280;7486;51.010;10.366;2023-02-18T04:20:21;98591.09;;;6.20;90.37
14790;BME280;7486;51.010;10.366;2023-02-18T04:22:47;98586.34;;;6.08;90.82
14790;BME280;7486;51.010;10.366;2023-02-18T04:25:14;98594.72;;;6.19;90.75
14790;BME280;7486;51.010;10.366;2023-02-18T04:27:41;98614.09;;;6.27;89.84
14790;BME280;7486;51.010;10.366;2023-02-18T04:30:08;98604.91;;;6.23;89.97
14790;BME280;7486;51.010;10.366;2023-02-18T04:32:35;98602.75;;;6.26;89.78
14790;BME280;7486;51.010;10.366;2023-02-18T04:35:02;98606.53;;;6.24;89.75
14790;BME280;7486;51.010;10.366;2023-02-18T04:37:29;98592.38;;;6.25;89.75
14790;BME280;7486;51.010;10.366;2023-02-18T04:39:56;98589.91;;;6.31;90.11
14790;BME280;7486;51.010;10.366;2023-02-18T04:42:22;98591.22;;;6.35;89.16
14790;BME280;7486;51.010;10.366;2023-02-18T04:44:49;98581.03;;;6.24;89.34
14790;BME280;7486;51.010;10.366;2023-02-18T04:47:16;98572.84;;;6.19;89.08
14790;BME280;7486;51.010;10.366;2023-02-18T04:49:43;98580.22;;;6.24;88.83
14790;BME280;7486;51.010;10.366;2023-02-18T04:52:09;98586.50;;;6.23;88.97
14790;BME280;7486;51.010;10.366;2023-02-18T04:54:36;98569.28;;;6.04;89.52
14790;BME280;7486;51.010;10.366;2023-02-18T04:57:03;98585.88;;;6.12;89.48
14790;BME280;7486;51.010;10.366;2023-02-18T04:59:30;98586.28;;;6.32;88.18
14790;BME280;7486;51.010;10.366;2023-02-18T05:01:56;98588.09;;;6.32;88.27
14790;BME280;7486;51.010;10.366;2023-02-18T05:04:23;98586.66;;;6.21;88.62
14790;BME280;7486;51.010;10.366;2023-02-18T05:06:50;98587.66;;;6.12;88.54
14790;BME280;7486;51.010;10.366;2023-02-18T05:09:17;98590.94;;;6.22;88.81
14790;BME280;7486;51.010;10.366;2023-02-18T05:11:45;98576.94;;;6.30;88.24
14790;BME280;7486;51.010;10.366;2023-02-18T05:14:12;98585.59;;;6.38;87.39
14790;BME280;7486;51.010;10.366;2023-02-18T05:16:39;98578.84;;;6.44;86.83
14790;BME280;7486;51.010;10.366;2023-02-18T05:19:06;98542.53;;;6.39;85.83
14790;BME280;7486;51.010;10.366;2023-02-18T05:21:33;98578.28;;;6.56;85.91
14790;BME280;7486;51.010;10.366;2023-02-18T05:23:59;98568.94;;;6.54;86.04
14790;BME280;7486;51.010;10.366;2023-02-18T05:26:28;98557.06;;;6.58;85.59
14790;BME280;7486;51.010;10.366;2023-02-18T05:28:55;98554.25;;;6.59;85.40
14790;BME280;7486;51.010;10.366;2023-02-18T05:31:22;98553.66;;;6.49;86.14
14790;BME280;7486;51.010;10.366;2023-02-18T05:33:49;98510.25;;;6.45;84.76
14790;BME280;7486;51.010;10.366;2023-02-18T05:36:15;98562.44;;;6.64;85.08
14790;BME280;7486;51.010;10.366;2023-02-18T05:38:42;98558.69;;;6.59;84.91
14790;BME280;7486;51.010;10.366;2023-02-18T05:41:09;98550.94;;;6.65;85.05
14790;BME280;7486;51.010;10.366;2023-02-18T05:43:35;98513.88;;;6.44;84.54
14790;BME280;7486;51.010;10.366;2023-02-18T05:46:02;98532.47;;;6.43;85.08
14790;BME280;7486;51.010;10.366;2023-02-18T05:48:29;98537.75;;;6.43;85.37
14790;BME280;7486;51.010;10.366;2023-02-18T05:50:55;98564.56;;;6.38;85.55
14790;BME280;7486;51.010;10.366;2023-02-18T05:53:22;98538.38;;;6.45;85.82
14790;BME280;7486;51.010;10.366;2023-02-18T05:55:49;98533.44;;;6.50;85.12
14790;BME280;7486;51.010;10.366;2023-02-18T05:58:15;98520.09;;;6.51;85.17
14790;BME280;7486;51.010;10.366;2023-02-18T06:00:42;98517.81;;;6.48;85.14
14790;BME280;7486;51.010;10.366;2023-02-18T06:03:09;98505.69;;;6.39;85.70
14790;BME280;7486;51.010;10.366;2023-02-18T06:05:35;98509.88;;;6.17;86.75
14790;BME280;7486;51.010;10.366;2023-02-18T06:08:02;98508.00;;;6.34;86.37
14790;BME280;7486;51.010;10.366;2023-02-18T06:10:29;98514.81;;;6.51;85.80
14790;BME280;7486;51.010;10.366;2023-02-18T06:12:55;98503.56;;;6.35;86.19
14790;BME280;7486;51.010;10.366;2023-02-18T06:15:22;98516.25;;;6.31;86.60
14790;BME280;7486;51.010;10.366;2023-02-18T06:17:49;98515.91;;;6.34;86.78
14790;BME280;7486;51.010;10.366;2023-02-18T06:20:16;98485.66;;;6.30;86.87
14790;BME280;7486;51.010;10.366;2023-02-18T06:22:42;98505.47;;;6.49;86.83
14790;BME280;7486;51.010;10.366;2023-02-18T06:25:09;98506.56;;;6.54;86.35
14790;BME280;7486;51.010;10.366;2023-02-18T06:27:36;98497.66;;;6.63;86.02
14790;BME280;7486;51.010;10.366;2023-02-18T06:30:02;98503.31;;;6.52;86.27
14790;BME280;7486;51.010;10.366;2023-02-18T06:32:29;98493.47;;;6.46;86.93
14790;BME280;7486;51.010;10.366;2023-02-18T06:34:57;98479.78;;;6.51;86.81
14790;BME280;7486;51.010;10.366;2023-02-18T06:37:24;98493.41;;;6.54;86.61
14790;BME280;7486;51.010;10.366;2023-02-18T06:39:51;98469.09;;;6.52;86.78
14790;BME280;7486;51.010;10.366;2023-02-18T06:42:18;98474.25;;;6.68;86.49
14790;BME280;7486;51.010;10.366;2023-02-18T06:44:45;98472.59;;;6.45;87.77
14790;BME280;7486;51.010;10.366;2023-02-18T06:47:11;98476.00;;;6.23;89.73
14790;BME280;7486;51.010;10.366;2023-02-18T06:49:38;98465.91;;;6.34;88.80
14790;BME280;7486;51.010;10.366;2023-02-18T06:52:04;98461.94;;;6.38;88.76
14790;BME280;7486;51.010;10.366;2023-02-18T06:54:32;98469.38;;;6.35;89.15
14790;BME280;7486;51.010;10.366;2023-02-18T06:56:59;98463.34;;;6.26;89.85
14790;BME280;7486;51.010;10.366;2023-02-18T06:59:25;98448.44;;;6.41;88.90
14790;BME280;7486;51.010;10.366;2023-02-18T07:01:52;98462.88;;;6.45;89.01
14790;BME280;7486;51.010;10.366;2023-02-18T07:04:19;98461.31;;;6.36;89.91
14790;BME280;7486;51.010;10.366;2023-02-18T07:06:46;98461.94;;;6.38;90.08
14790;BME280;7486;51.010;10.366;2023-02-18T07:09:12;98442.91;;;6.36;89.67
14790;BME280;7486;51.010;10.366;2023-02-18T07:11:39;98460.22;;;6.53;89.64
14790;BME280;7486;51.010;10.366;2023-02-18T07:14:06;98441.38;;;6.64;89.22
14790;BME280;7486;51.010;10.366;2023-02-18T07:16:33;98419.47;;;6.49;88.42
14790;BME280;7486;51.010;10.366;2023-02-18T07:19:00;98442.09;;;6.58;88.93
14790;BME280;7486;51.010;10.366;2023-02-18T07:21:27;98431.31;;;6.45;89.54
14790;BME280;7486;51.010;10.366;2023-02-18T07:23:53;98405.59;;;6.33;89.92
14790;BME280;7486;51.010;10.366;2023-02-18T07:26:20;98424.78;;;6.64;89.32
14790;BME280;7486;51.010;10.366;2023-02-18T07:28:47;98415.88;;;6.65;88.76
14790;BME280;7486;51.010;10.366;2023-02-18T07:31:14;98403.66;;;6.49;89.26
14790;BME280;7486;51.010;10.366;2023-02-18T07:33:41;98410.84;;;6.55;88.93
14790;BME280;7486;51.010;10.366;2023-02-18T07:36:08;98367.50;;;6.20;89.11
14790;BME280;7486;51.010;10.366;2023-02-18T07:38:35;98396.88;;;6.32;90.22
14790;BME280;7486;51.010;10.366;2023-02-18T07:41:02;98408.34;;;6.39;90.73
14790;BME280;7486;51.010;10.366;2023-02-18T07:43:29;98405.94;;;6.30;90.18
14790;BME280;7486;51.010;10.366;2023-02-18T07:45:56;98403.22;;;6.15;90.89
14790;BME280;7486;51.010;10.366;2023-02-18T07:48:23;98365.44;;;5.85;91.76
14790;BME280;7486;51.010;10.366;2023-02-18T07:50:49;98397.16;;;6.14;91.75
14790;BME280;7486;51.010;10.366;2023-02-18T07:53:16;98398.13;;;6.13;91.96
14790;BME280;7486;51.010;10.366;2023-02-18T07:55:43;98393.38;;;6.40;90.65
14790;BME280;7486;51.010;10.366;2023-02-18T07:58:09;98396.69;;;6.34;90.45
14790;BME280;7486;51.010;10.366;2023-02-18T08:00:36;98386.94;;;6.42;90.76
14790;BME280;7486;51.010;10.366;2023-02-18T08:03:03;98390.47;;;6.57;90.19
14790;BME280;7486;51.010;10.366;2023-02-18T08:05:30;98386.81;;;6.58;89.86
14790;BME280;7486;51.010;10.366;2023-02-18T08:07:56;98385.13;;;6.65;88.99
14790;BME280;7486;51.010;10.366;2023-02-18T08:10:23;98389.69;;;6.49;89.97
14790;BME280;7486;51.010;10.366;2023-02-18T08:12:50;98384.16;;;6.44;90.64
14790;BME280;7486;51.010;10.366;2023-02-18T08:15:16;98386.97;;;6.34;91.18
14790;BME280;7486;51.010;10.366;2023-02-18T08:17:43;98390.31;;;6.51;90.68
14790;BME280;7486;51.010;10.366;2023-02-18T08:20:10;98392.78;;;6.52;92.30
14790;BME280;7486;51.010;10.366;2023-02-18T08:22:37;98393.09;;;6.57;92.37
14790;BME280;7486;51.010;10.366;2023-02-18T08:25:04;98393.13;;;6.49;92.66
14790;BME280;7486;51.010;10.366;2023-02-18T08:27:31;98389.25;;;6.37;93.93
14790;BME280;7486;51.010;10.366;2023-02-18T08:29:57;98362.28;;;6.43;93.00
14790;BME280;7486;51.010;10.366;2023-02-18T08:32:27;98366.16;;;6.47;93.43
14790;BME280;7486;51.010;10.366;2023-02-18T08:34:54;98378.56;;;6.61;92.92
14790;BME280;7486;51.010;10.366;2023-02-18T08:37:21;98335.59;;;6.24;93.92
14790;BME280;7486;51.010;10.366;2023-02-18T08:39:48;98343.50;;;6.46;94.52
14790;BME280;7486;51.010;10.366;2023-02-18T08:42:15;98348.16;;;6.59;93.47
14790;BME280;7486;51.010;10.366;2023-02-18T08:44:41;98360.34;;;6.60;93.99
14790;BME280;7486;51.010;10.366;2023-02-18T08:47:08;98356.66;;;6.46;94.87
14790;BME280;7486;51.010;10.366;2023-02-18T08:49:55;98337.25;;;6.25;96.07
14790;BME280;7486;51.010;10.366;2023-02-18T08:52:22;98364.66;;;6.30;97.27
14790;BME280;7486;51.010;10.366;2023-02-18T08:54:49;98356.75;;;6.30;98.01
14790;BME280;7486;51.010;10.366;2023-02-18T08:57:16;98356.72;;;6.38;97.47
14790;BME280;7486;51.010;10.366;2023-02-18T08:59:43;98368.56;;;6.34;98.10
14790;BME280;7486;51.010;10.366;2023-02-18T09:02:13;98366.50;;;6.30;98.58
14790;BME280;7486;51.010;10.366;2023-02-18T09:04:40;98373.78;;;6.42;97.47
14790;BME280;7486;51.010;10.366;2023-02-18T09:07:06;98371.56;;;6.54;96.34
14790;BME280;7486;51.010;10.366;2023-02-18T09:09:33;98363.47;;;6.55;95.60
14790;BME280;7486;51.010;10.366;2023-02-18T09:12:00;98380.34;;;6.46;95.27
14790;BME280;7486;51.010;10.366;2023-02-18T09:14:27;98357.88;;;6.36;96.72
14790;BME280;7486;51.010;10.366;2023-02-18T09:16:56;98346.84;;;6.40;95.83
14790;BME280;7486;51.010;10.366;2023-02-18T09:19:23;98357.19;;;6.42;95.50
14790;BME280;7486;51.010;10.366;2023-02-18T09:21:50;98351.56;;;6.45;95.45
14790;BME280;7486;51.010;10.366;2023-02-18T09:24:26;98368.81;;;6.47;94.75
14790;BME280;7486;51.010;10.366;2023-02-18T09:26:52;98367.34;;;6.45;95.40
14790;BME280;7486;51.010;10.366;2023-02-18T09:29:19;98372.19;;;6.56;94.63
14790;BME280;7486;51.010;10.366;2023-02-18T09:31:46;98356.25;;;6.57;93.63
14790;BME280;7486;51.010;10.366;2023-02-18T09:34:13;98353.91;;;6.40;94.60
14790;BME280;7486;51.010;10.366;2023-02-18T09:36:39;98368.88;;;6.39;94.65
14790;BME280;7486;51.010;10.366;2023-02-18T09:39:06;98358.81;;;6.20;95.17
14790;BME280;7486;51.010;10.366;2023-02-18T09:41:41;98365.34;;;6.24;95.49
14790;BME280;7486;51.010;10.366;2023-02-18T09:44:55;98372.34;;;6.40;94.40
14790;BME280;7486;51.010;10.366;2023-02-18T09:47:30;98362.56;;;6.48;94.45
14790;BME280;7486;51.010;10.366;2023-02-18T09:52:39;98335.16;;;6.43;92.64
14790;BME280;7486;51.010;10.366;2023-02-18T09:57:50;98330.38;;;6.61;91.70
14790;BME280;7486;51.010;10.366;2023-02-18T10:00:25;98338.50;;;6.51;91.47
14790;BME280;7486;51.010;10.366;2023-02-18T10:03:00;98330.34;;;6.24;91.93
14790;BME280;7486;51.010;10.366;2023-02-18T10:05:29;98335.59;;;6.24;92.51
14790;BME280;7486;51.010;10.366;2023-02-18T10:08:03;98336.94;;;6.42;91.70
14790;BME280;7486;51.010;10.366;2023-02-18T10:10:47;98307.50;;;6.24;91.08
14790;BME280;7486;51.010;10.366;2023-02-18T10:13:23;98323.94;;;6.26;91.07
14790;BME280;7486;51.010;10.366;2023-02-18T10:15:51;98323.63;;;6.21;91.38
14790;BME280;7486;51.010;10.366;2023-02-18T10:18:29;98317.06;;;6.17;91.69
14790;BME280;7486;51.010;10.366;2023-02-18T10:23:29;98329.41;;;6.39;88.87
14790;BME280;7486;51.010;10.366;2023-02-18T10:25:58;98323.63;;;6.44;88.97
14790;BME280;7486;51.010;10.366;2023-02-18T10:28:26;98329.00;;;6.50;87.91
14790;BME280;7486;51.010;10.366;2023-02-18T10:30:59;98329.09;;;6.57;86.92
14790;BME280;7486;51.010;10.366;2023-02-18T10:36:23;98322.81;;;6.58;85.79
14790;BME280;7486;51.010;10.366;2023-02-18T10:42:07;98332.34;;;6.82;84.77
14790;BME280;7486;51.010;10.366;2023-02-18T10:47:53;98331.66;;;6.88;84.43
14790;BME280;7486;51.010;10.366;2023-02-18T10:50:31;98337.75;;;6.65;84.42
14790;BME280;7486;51.010;10.366;2023-02-18T10:55:49;98330.50;;;6.67;86.36
14790;BME280;7486;51.010;10.366;2023-02-18T10:58:42;98323.22;;;6.69;86.37
14790;BME280;7486;51.010;10.366;2023-02-18T11:01:16;98307.97;;;6.50;86.82
14790;BME280;7486;51.010;10.366;2023-02-18T11:06:30;98277.47;;;6.56;86.63
14790;BME280;7486;51.010;10.366;2023-02-18T11:08:58;98285.31;;;6.79;84.71
14790;BME280;7486;51.010;10.366;2023-02-18T11:11:35;98297.66;;;6.78;83.86
14790;BME280;7486;51.010;10.366;2023-02-18T11:14:06;98293.34;;;7.00;83.02
14790;BME280;7486;51.010;10.366;2023-02-18T11:16:42;98279.59;;;6.75;82.11
14790;BME280;7486;51.010;10.366;2023-02-18T11:19:35;98288.41;;;6.82;81.38
14790;BME280;7486;51.010;10.366;2023-02-18T11:24:37;98222.50;;;6.76;81.46
14790;BME280;7486;51.010;10.366;2023-02-18T11:27:09;98272.44;;;6.84;80.27
14790;BME280;7486;51.010;10.366;2023-02-18T11:29:40;98266.47;;;6.90;80.96
14790;BME280;7486;51.010;10.366;2023-02-18T11:32:09;98285.88;;;6.89;80.63
14790;BME280;7486;51.010;10.366;2023-02-18T11:34:40;98288.44;;;6.97;79.51
14790;BME280;7486;51.010;10.366;2023-02-18T11:37:11;98234.97;;;6.44;79.37
14790;BME280;7486;51.010;10.366;2023-02-18T11:39:43;98283.75;;;6.69;79.33
14790;BME280;7486;51.010;10.366;2023-02-18T11:42:13;98270.81;;;6.83;78.48
14790;BME280;7486;51.010;10.366;2023-02-18T11:44:48;98271.16;;;6.80;78.73
14790;BME280;7486;51.010;10.366;2023-02-18T11:49:44;98277.72;;;7.13;77.24
14790;BME280;7486;51.010;10.366;2023-02-18T11:52:27;98268.66;;;7.15;76.26
14790;BME280;7486;51.010;10.366;2023-02-18T11:55:06;98252.75;;;6.94;77.10
14790;BME280;7486;51.010;10.366;2023-02-18T11:57:37;98268.91;;;6.91;77.22
14790;BME280;7486;51.010;10.366;2023-02-18T12:00:20;98254.19;;;6.97;77.94
14790;BME280;7486;51.010;10.366;2023-02-18T12:02:49;98258.19;;;7.07;77.84
14790;BME280;7486;51.010;10.366;2023-02-18T12:05:24;98229.88;;;6.95;78.54
14790;BME280;7486;51.010;10.366;2023-02-18T12:07:58;98278.25;;;6.94;79.64
14790;BME280;7486;51.010;10.366;2023-02-18T12:10:44;98279.22;;;6.78;81.21
14790;BME280;7486;51.010;10.366;2023-02-18T12:21:17;98293.53;;;6.24;85.09
14790;BME280;7486;51.010;10.366;2023-02-18T12:24:26;98290.50;;;6.12;86.38
14790;BME280;7486;51.010;10.366;2023-02-18T12:27:21;98289.63;;;6.19;86.34
14790;BME280;7486;51.010;10.366;2023-02-18T12:32:48;98287.31;;;6.16;86.02
14790;BME280;7486;51.010;10.366;2023-02-18T12:44:03;98300.59;;;5.78;88.64
14790;BME280;7486;51.010;10.366;2023-02-18T12:57:17;98311.94;;;6.01;86.89
14790;BME280;7486;51.010;10.366;2023-02-18T13:03:11;98315.22;;;5.72;88.10
14790;BME280;7486;51.010;10.366;2023-02-18T13:14:33;98309.47;;;5.77;86.62
14790;BME280;7486;51.010;10.366;2023-02-18T13:17:03;98263.94;;;5.53;86.03
14790;BME280;7486;51.010;10.366;2023-02-18T13:19:48;98305.84;;;6.00;85.45
14790;BME280;7486;51.010;10.366;2023-02-18T13:22:17;98257.19;;;5.82;85.00
14790;BME280;7486;51.010;10.366;2023-02-18T13:24:47;98316.22;;;6.02;84.92
14790;BME280;7486;51.010;10.366;2023-02-18T13:27:30;98295.94;;;6.10;84.36
14790;BME280;7486;51.010;10.366;2023-02-18T13:35:54;98294.75;;;5.90;85.13
14790;BME280;7486;51.010;10.366;2023-02-18T13:38:27;98298.63;;;6.02;84.51
14790;BME280;7486;51.010;10.366;2023-02-18T13:41:00;98297.91;;;5.86;84.72
14790;BME280;7486;51.010;10.366;2023-02-18T13:48:39;98294.75;;;5.90;85.51
14790;BME280;7486;51.010;10.366;2023-02-18T13:51:08;98292.91;;;5.99;84.91
14790;BME280;7486;51.010;10.366;2023-02-18T13:53:37;98284.47;;;5.81;86.00
14790;BME280;7486;51.010;10.366;2023-02-18T13:56:22;98298.94;;;5.99;86.75
14790;BME280;7486;51.010;10.366;2023-02-18T13:58:59;98285.28;;;6.04;86.39
14790;BME280;7486;51.010;10.366;2023-02-18T14:10:05;98302.94;;;5.95;87.85
14790;BME280;7486;51.010;10.366;2023-02-18T14:18:30;98298.81;;;5.70;90.01
14790;BME280;7486;51.010;10.366;2023-02-18T14:23:43;98308.22;;;5.64;90.72
14790;BME280;7486;51.010;10.366;2023-02-18T14:26:23;98307.25;;;5.88;89.63
14790;BME280;7486;51.010;10.366;2023-02-18T14:31:47;98324.44;;;5.99;88.61
14790;BME280;7486;51.010;10.366;2023-02-18T14:34:23;98318.50;;;6.05;88.28
14790;BME280;7486;51.010;10.366;2023-02-18T14:37:34;98317.34;;;5.99;88.51
14790;BME280;7486;51.010;10.366;2023-02-18T14:50:43;98299.78;;;6.00;88.93
14790;BME280;7486;51.010;10.366;2023-02-18T14:53:17;98320.81;;;6.00;89.80
14790;BME280;7486;51.010;10.366;2023-02-18T14:55:49;98328.53;;;5.79;91.07
14790;BME280;7486;51.010;10.366;2023-02-18T14:58:28;98318.91;;;5.86;90.92
14790;BME280;7486;51.010;10.366;2023-02-18T15:00:56;98327.69;;;5.78;91.86
14790;BME280;7486;51.010;10.366;2023-02-18T15:03:25;98327.81;;;5.85;91.70
14790;BME280;7486;51.010;10.366;2023-02-18T15:05:52;98320.31;;;5.74;92.32
14790;BME280;7486;51.010;10.366;2023-02-18T15:08:23;98332.13;;;5.78;92.06
14790;BME280;7486;51.010;10.366;2023-02-18T15:10:55;98331.44;;;5.84;92.21
14790;BME280;7486;51.010;10.366;2023-02-18T15:13:29;98334.91;;;5.76;92.26
14790;BME280;7486;51.010;10.366;2023-02-18T15:15:58;98339.22;;;5.69;93.30
14790;BME280;7486;51.010;10.366;2023-02-18T15:18:33;98350.56;;;5.69;93.71
14790;BME280;7486;51.010;10.366;2023-02-18T15:21:01;98341.09;;;5.60;94.62
14790;BME280;7486;51.010;10.366;2023-02-18T15:23:29;98347.03;;;5.54;94.78
14790;BME280;7486;51.010;10.366;2023-02-18T15:25:57;98347.06;;;5.46;95.60
14790;BME280;7486;51.010;10.366;2023-02-18T15:28:31;98358.19;;;5.56;95.89
14790;BME280;7486;51.010;10.366;2023-02-18T15:31:00;98303.91;;;5.41;95.20
14790;BME280;7486;51.010;10.366;2023-02-18T15:33:29;98356.16;;;5.66;95.07
14790;BME280;7486;51.010;10.366;2023-02-18T15:36:03;98361.53;;;5.73;95.28
14790;BME280;7486;51.010;10.366;2023-02-18T15:38:31;98349.53;;;5.79;94.85
14790;BME280;7486;51.010;10.366;2023-02-18T15:40:58;98342.06;;;5.90;94.22
14790;BME280;7486;51.010;10.366;2023-02-18T15:43:26;98345.56;;;5.83;94.49
14790;BME280;7486;51.010;10.366;2023-02-18T15:45:55;98336.56;;;5.77;94.72
14790;BME280;7486;51.010;10.366;2023-02-18T15:48:42;98343.47;;;5.78;95.07
14790;BME280;7486;51.010;10.366;2023-02-18T15:51:12;98334.53;;;5.87;94.74
14790;BME280;7486;51.010;10.366;2023-02-18T15:53:48;98336.31;;;5.64;96.00
14790;BME280;7486;51.010;10.366;2023-02-18T15:56:25;98340.41;;;5.58;96.31
14790;BME280;7486;51.010;10.366;2023-02-18T16:01:49;98343.00;;;5.75;95.99
14790;BME280;7486;51.010;10.366;2023-02-18T16:04:16;98350.34;;;5.79;95.43